sensor_id;sensor_type;location;lat;lon;timestamp;pressure;altitude;pressure_sealevel;temperature;humidity
13604;BME280;24578;48.264;11.436;2023-03-07T00:03:15;95022.09;;;1.52;100.00
13604;BME280;24578;48.264;11.436;2023-03-07T00:06:37;95023.81;;;1.51;100.00
13604;BME280;24578;48.264;11.436;2023-03-07T00:09:59;95018.44;;;1.56;100.00
13604;BME280;24578;48.264;11.436;2023-03-07T00:13:21;95015.09;;;1.56;100.00
13604;BME280;24578;48.264;11.436;2023-03-07T00:16:43;95016.59;;;1.44;100.00
13604;BME280;24578;48.264;11.436;2023-03-07T00:20:05;95003.75;;;1.45;100.00
13604;BME280;24578;48.264;11.436;2023-03-07T00:23:28;95006.22;;;1.47;100.00
13604;BME280;24578;48.264;11.436;2023-03-07T00:26:49;95016.59;;;1.44;100.00
13604;BME280;24578;48.264;11.436;2023-03-07T00:30:11;94998.56;;;1.47;100.00
13604;BME280;24578;48.264;11.436;2023-03-07T00:33:34;95001.38;;;1.42;100.00
13604;BME280;24578;48.264;11.436;2023-03-07T00:36:56;95002.38;;;1.40;100.00
13604;BME280;24578;48.264;11.436;2023-03-07T00:40:17;94996.28;;;1.42;100.00
13604;BME280;24578;48.264;11.436;2023-03-07T00:43:41;94990.53;;;1.39;100.00
13604;BME280;24578;48.264;11.436;2023-03-07T00:47:03;94989.75;;;1.52;100.00
13604;BME280;24578;48.264;11.436;2023-03-07T00:50:25;94983.66;;;1.55;100.00
13604;BME280;24578;48.264;11.436;2023-03-07T00:53:47;94978.72;;;1.52;100.00
13604;BME280;24578;48.264;11.436;2023-03-07T00:57:08;94970.06;;;1.55;100.00
13604;BME280;24578;48.264;11.436;2023-03-07T01:00:30;94973.91;;;1.47;100.00
13604;BME280;24578;48.264;11.436;2023-03-07T01:03:52;94971.34;;;1.47;100.00
13604;BME280;24578;48.264;11.436;2023-03-07T01:07:14;94965.50;;;1.45;100.00
13604;BME280;24578;48.264;11.436;2023-03-07T01:10:36;94968.13;;;1.44;100.00
13604;BME280;24578;48.264;11.436;2023-03-07T01:14:01;94963.94;;;1.43;100.00
13604;BME280;24578;48.264;11.436;2023-03-07T01:17:24;94966.25;;;1.47;100.00
13604;BME280;24578;48.264;11.436;2023-03-07T01:20:46;94954.56;;;1.43;100.00
13604;BME280;24578;48.264;11.436;2023-03-07T01:24:12;94951.38;;;1.40;100.00
13604;BME280;24578;48.264;11.436;2023-03-07T01:27:34;94952.81;;;1.44;100.00
13604;BME280;24578;48.264;11.436;2023-03-07T01:30:58;94942.16;;;1.37;100.00
13604;BME280;24578;48.264;11.436;2023-03-07T01:34:20;94941.78;;;1.29;100.00
13604;BME280;24578;48.264;11.436;2023-03-07T01:37:41;94936.50;;;1.32;100.00
13604;BME280;24578;48.264;11.436;2023-03-07T01:41:03;94943.78;;;1.38;100.00
13604;BME280;24578;48.264;11.436;2023-03-07T01:44:25;94936.69;;;1.29;100.00
13604;BME280;24578;48.264;11.436;2023-03-07T01:47:47;94938.31;;;1.30;100.00
13604;BME280;24578;48.264;11.436;2023-03-07T01:51:09;94933.13;;;1.31;100.00
13604;BME280;24578;48.264;11.436;2023-03-07T01:54:35;94935.03;;;1.28;100.00
13604;BME280;24578;48.264;11.436;2023-03-07T01:58:08;94925.00;;;1.25;100.00
13604;BME280;24578;48.264;11.436;2023-03-07T02:01:31;94922.28;;;1.28;100.00
13604;BME280;24578;48.264;11.436;2023-03-07T02:05:08;94911.50;;;1.23;100.00
13604;BME280;24578;48.264;11.436;2023-03-07T02:08:33;94908.31;;;1.19;100.00
13604;BME280;24578;48.264;11.436;2023-03-07T02:11:57;94909.69;;;1.25;100.00
13604;BME280;24578;48.264;11.436;2023-03-07T02:15:21;94906.78;;;1.16;100.00
13604;BME280;24578;48.264;11.436;2023-03-07T02:18:45;94901.16;;;1.26;100.00
13604;BME280;24578;48.264;11.436;2023-03-07T02:22:11;94906.34;;;1.24;100.00
13604;BME280;24578;48.264;11.436;2023-03-07T02:25:46;94912.81;;;1.30;100.00
13604;BME280;24578;48.264;11.436;2023-03-07T02:29:12;94905.25;;;1.28;100.00
13604;BME280;24578;48.264;11.436;2023-03-07T02:32:34;94908.81;;;1.26;100.00
13604;BME280;24578;48.264;11.436;2023-03-07T02:36:09;94914.63;;;1.28;100.00
13604;BME280;24578;48.264;11.436;2023-03-07T02:39:31;94910.75;;;1.36;100.00
13604;BME280;24578;48.264;11.436;2023-03-07T02:42:58;94911.81;;;1.32;100.00
13604;BME280;24578;48.264;11.436;2023-03-07T02:46:26;94916.66;;;1.37;100.00
13604;BME280;24578;48.264;11.436;2023-03-07T02:49:48;94911.75;;;1.48;100.00
13604;BME280;24578;48.264;11.436;2023-03-07T02:53:09;94915.75;;;1.38;100.00
13604;BME280;24578;48.264;11.436;2023-03-07T02:56:31;94915.28;;;1.31;100.00
13604;BME280;24578;48.264;11.436;2023-03-07T02:59:53;94906.66;;;1.48;100.00
13604;BME280;24578;48.264;11.436;2023-03-07T03:03:15;94909.19;;;1.48;100.00
13604;BME280;24578;48.264;11.436;2023-03-07T03:06:37;94902.84;;;1.56;100.00
13604;BME280;24578;48.264;11.436;2023-03-07T03:09:59;94902.50;;;1.62;100.00
13604;BME280;24578;48.264;11.436;2023-03-07T03:13:20;94892.09;;;1.65;100.00
13604;BME280;24578;48.264;11.436;2023-03-07T03:16:42;94889.56;;;1.65;100.00
13604;BME280;24578;48.264;11.436;2023-03-07T03:20:05;94897.84;;;1.54;100.00
13604;BME280;24578;48.264;11.436;2023-03-07T03:23:32;94896.09;;;1.55;100.00
13604;BME280;24578;48.264;11.436;2023-03-07T03:26:57;94900.19;;;1.57;100.00
13604;BME280;24578;48.264;11.436;2023-03-07T03:30:19;94886.19;;;1.64;100.00
13604;BME280;24578;48.264;11.436;2023-03-07T03:33:41;94895.13;;;1.72;100.00
13604;BME280;24578;48.264;11.436;2023-03-07T03:37:04;94886.94;;;1.66;100.00
13604;BME280;24578;48.264;11.436;2023-03-07T03:40:26;94884.56;;;1.63;100.00
13604;BME280;24578;48.264;11.436;2023-03-07T03:43:48;94875.38;;;1.75;100.00
13604;BME280;24578;48.264;11.436;2023-03-07T03:47:09;94864.69;;;1.69;100.00
13604;BME280;24578;48.264;11.436;2023-03-07T03:50:31;94876.09;;;1.77;100.00
13604;BME280;24578;48.264;11.436;2023-03-07T03:53:54;94871.63;;;1.81;100.00
13604;BME280;24578;48.264;11.436;2023-03-07T03:57:15;94866.78;;;1.62;100.00
13604;BME280;24578;48.264;11.436;2023-03-07T04:00:39;94860.22;;;1.72;100.00
13604;BME280;24578;48.264;11.436;2023-03-07T04:04:01;94861.50;;;1.79;100.00
13604;BME280;24578;48.264;11.436;2023-03-07T04:07:22;94863.34;;;1.63;100.00
13604;BME280;24578;48.264;11.436;2023-03-07T04:10:45;94856.59;;;1.62;100.00
13604;BME280;24578;48.264;11.436;2023-03-07T04:14:07;94862.03;;;1.56;100.00
13604;BME280;24578;48.264;11.436;2023-03-07T04:17:29;94864.03;;;1.65;100.00
13604;BME280;24578;48.264;11.436;2023-03-07T04:20:51;94859.31;;;1.44;100.00
13604;BME280;24578;48.264;11.436;2023-03-07T04:24:13;94859.75;;;1.51;100.00
13604;BME280;24578;48.264;11.436;2023-03-07T04:27:34;94851.56;;;1.46;100.00
13604;BME280;24578;48.264;11.436;2023-03-07T04:30:56;94852.84;;;1.39;100.00
13604;BME280;24578;48.264;11.436;2023-03-07T04:34:18;94843.25;;;1.28;100.00
13604;BME280;24578;48.264;11.436;2023-03-07T04:37:40;94859.91;;;1.33;100.00
13604;BME280;24578;48.264;11.436;2023-03-07T04:41:01;94858.66;;;0.96;100.00
13604;BME280;24578;48.264;11.436;2023-03-07T04:44:23;94865.38;;;0.97;100.00
13604;BME280;24578;48.264;11.436;2023-03-07T04:47:45;94860.66;;;0.74;100.00
13604;BME280;24578;48.264;11.436;2023-03-07T04:51:08;94857.16;;;0.61;100.00
13604;BME280;24578;48.264;11.436;2023-03-07T04:54:29;94854.34;;;0.66;100.00
13604;BME280;24578;48.264;11.436;2023-03-07T04:57:51;94870.13;;;0.56;100.00
13604;BME280;24578;48.264;11.436;2023-03-07T05:01:13;94867.28;;;0.47;100.00
13604;BME280;24578;48.264;11.436;2023-03-07T05:04:35;94862.41;;;0.42;100.00
13604;BME280;24578;48.264;11.436;2023-03-07T05:07:56;94868.41;;;0.25;100.00
13604;BME280;24578;48.264;11.436;2023-03-07T05:11:19;94856.75;;;0.21;100.00
13604;BME280;24578;48.264;11.436;2023-03-07T05:14:41;94865.78;;;0.26;100.00
13604;BME280;24578;48.264;11.436;2023-03-07T05:18:03;94867.56;;;0.24;100.00
13604;BME280;24578;48.264;11.436;2023-03-07T05:21:24;94863.88;;;0.14;100.00
13604;BME280;24578;48.264;11.436;2023-03-07T05:24:46;94872.25;;;0.16;100.00
13604;BME280;24578;48.264;11.436;2023-03-07T05:28:08;94872.50;;;0.11;100.00
13604;BME280;24578;48.264;11.436;2023-03-07T05:31:30;94871.28;;;0.03;100.00
13604;BME280;24578;48.264;11.436;2023-03-07T05:34:51;94873.47;;;-0.07;100.00
13604;BME280;24578;48.264;11.436;2023-03-07T05:38:13;94872.72;;;-0.09;100.00
13604;BME280;24578;48.264;11.436;2023-03-07T05:41:35;94866.22;;;-0.15;100.00
13604;BME280;24578;48.264;11.436;2023-03-07T05:44:57;94876.56;;;-0.18;100.00
13604;BME280;24578;48.264;11.436;2023-03-07T05:48:19;94873.28;;;-0.20;100.00
13604;BME280;24578;48.264;11.436;2023-03-07T05:51:41;94871.72;;;-0.23;100.00
13604;BME280;24578;48.264;11.436;2023-03-07T05:55:03;94863.94;;;-0.20;100.00
13604;BME280;24578;48.264;11.436;2023-03-07T05:58:25;94870.97;;;-0.25;100.00
13604;BME280;24578;48.264;11.436;2023-03-07T06:01:46;94872.63;;;-0.24;100.00
13604;BME280;24578;48.264;11.436;2023-03-07T06:05:08;94871.81;;;-0.24;100.00
13604;BME280;24578;48.264;11.436;2023-03-07T06:08:30;94864.09;;;-0.23;100.00
13604;BME280;24578;48.264;11.436;2023-03-07T06:11:52;94863.94;;;-0.20;100.00
13604;BME280;24578;48.264;11.436;2023-03-07T06:15:14;94867.38;;;-0.05;100.00
13604;BME280;24578;48.264;11.436;2023-03-07T06:18:35;94862.00;;;0.02;100.00
13604;BME280;24578;48.264;11.436;2023-03-07T06:21:57;94861.34;;;0.14;100.00
13604;BME280;24578;48.264;11.436;2023-03-07T06:25:19;94855.94;;;0.20;100.00
13604;BME280;24578;48.264;11.436;2023-03-07T06:28:42;94865.69;;;0.44;100.00
13604;BME280;24578;48.264;11.436;2023-03-07T06:32:04;94858.66;;;0.80;100.00
13604;BME280;24578;48.264;11.436;2023-03-07T06:35:27;94860.03;;;1.46;100.00
13604;BME280;24578;48.264;11.436;2023-03-07T06:38:49;94842.22;;;2.86;100.00
13604;BME280;24578;48.264;11.436;2023-03-07T06:42:11;94838.09;;;4.02;92.03
13604;BME280;24578;48.264;11.436;2023-03-07T06:45:33;94840.16;;;4.71;87.06
13604;BME280;24578;48.264;11.436;2023-03-07T06:48:55;94842.00;;;5.40;82.99
13604;BME280;24578;48.264;11.436;2023-03-07T06:52:16;94843.25;;;5.93;76.62
13604;BME280;24578;48.264;11.436;2023-03-07T06:55:38;94842.44;;;5.70;73.68
13604;BME280;24578;48.264;11.436;2023-03-07T06:59:00;94850.63;;;5.28;74.27
13604;BME280;24578;48.264;11.436;2023-03-07T07:02:22;94845.16;;;4.72;77.41
13604;BME280;24578;48.264;11.436;2023-03-07T07:05:44;94847.31;;;4.79;77.48
13604;BME280;24578;48.264;11.436;2023-03-07T07:09:06;94850.19;;;4.74;76.82
13604;BME280;24578;48.264;11.436;2023-03-07T07:12:28;94858.72;;;4.62;77.59
13604;BME280;24578;48.264;11.436;2023-03-07T07:15:50;94849.09;;;4.41;78.75
13604;BME280;24578;48.264;11.436;2023-03-07T07:19:11;94850.69;;;4.05;80.60
13604;BME280;24578;48.264;11.436;2023-03-07T07:22:33;94853.50;;;3.76;83.30
13604;BME280;24578;48.264;11.436;2023-03-07T07:25:55;94842.59;;;4.11;80.23
13604;BME280;24578;48.264;11.436;2023-03-07T07:29:17;94844.66;;;3.93;80.70
13604;BME280;24578;48.264;11.436;2023-03-07T07:32:39;94843.50;;;4.47;80.01
13604;BME280;24578;48.264;11.436;2023-03-07T07:36:01;94826.72;;;6.08;69.81
13604;BME280;24578;48.264;11.436;2023-03-07T07:39:22;94827.94;;;6.81;64.65
13604;BME280;24578;48.264;11.436;2023-03-07T07:42:48;94817.03;;;7.42;61.22
13604;BME280;24578;48.264;11.436;2023-03-07T07:46:15;94812.75;;;7.10;60.42
13604;BME280;24578;48.264;11.436;2023-03-07T07:49:37;94821.66;;;7.70;58.06
13604;BME280;24578;48.264;11.436;2023-03-07T07:52:58;94814.16;;;8.79;53.69
13604;BME280;24578;48.264;11.436;2023-03-07T07:56:20;94810.59;;;9.20;49.89
13604;BME280;24578;48.264;11.436;2023-03-07T07:59:42;94821.00;;;10.05;46.81
13604;BME280;24578;48.264;11.436;2023-03-07T08:03:03;94806.72;;;10.85;42.88
13604;BME280;24578;48.264;11.436;2023-03-07T08:06:27;94799.09;;;11.01;41.23
13604;BME280;24578;48.264;11.436;2023-03-07T08:09:49;94801.38;;;10.50;41.07
13604;BME280;24578;48.264;11.436;2023-03-07T08:13:12;94796.72;;;10.72;41.02
13604;BME280;24578;48.264;11.436;2023-03-07T08:16:34;94797.69;;;11.07;39.72
13604;BME280;24578;48.264;11.436;2023-03-07T08:19:56;94793.34;;;11.34;39.13
13604;BME280;24578;48.264;11.436;2023-03-07T08:23:21;94789.16;;;12.20;37.05
13604;BME280;24578;48.264;11.436;2023-03-07T08:26:44;94795.63;;;12.16;37.27
13604;BME280;24578;48.264;11.436;2023-03-07T08:30:07;94782.28;;;11.76;36.99
13604;BME280;24578;48.264;11.436;2023-03-07T08:33:29;94783.00;;;11.86;37.01
13604;BME280;24578;48.264;11.436;2023-03-07T08:36:50;94772.16;;;13.18;35.01
13604;BME280;24578;48.264;11.436;2023-03-07T08:40:15;94766.84;;;13.93;32.74
13604;BME280;24578;48.264;11.436;2023-03-07T08:43:37;94751.91;;;13.95;32.33
13604;BME280;24578;48.264;11.436;2023-03-07T08:46:59;94757.47;;;13.75;33.20
13604;BME280;24578;48.264;11.436;2023-03-07T08:50:23;94753.09;;;13.76;32.28
13604;BME280;24578;48.264;11.436;2023-03-07T08:53:46;94754.75;;;13.02;33.72
13604;BME280;24578;48.264;11.436;2023-03-07T08:57:08;94752.13;;;13.68;32.64
13604;BME280;24578;48.264;11.436;2023-03-07T09:00:30;94757.53;;;13.01;33.46
13604;BME280;24578;48.264;11.436;2023-03-07T09:03:52;94754.13;;;13.50;32.17
13604;BME280;24578;48.264;11.436;2023-03-07T09:07:14;94759.44;;;14.21;31.13
13604;BME280;24578;48.264;11.436;2023-03-07T09:10:35;94753.38;;;14.60;31.09
13604;BME280;24578;48.264;11.436;2023-03-07T09:13:57;94743.56;;;14.08;30.85
13604;BME280;24578;48.264;11.436;2023-03-07T09:17:19;94741.50;;;13.86;31.48
13604;BME280;24578;48.264;11.436;2023-03-07T09:20:41;94751.34;;;13.35;31.71
13604;BME280;24578;48.264;11.436;2023-03-07T09:24:03;94748.19;;;12.40;33.32
13604;BME280;24578;48.264;11.436;2023-03-07T09:27:25;94748.09;;;13.33;31.50
13604;BME280;24578;48.264;11.436;2023-03-07T09:30:48;94730.41;;;12.62;32.87
13604;BME280;24578;48.264;11.436;2023-03-07T09:34:10;94729.00;;;13.82;31.67
13604;BME280;24578;48.264;11.436;2023-03-07T09:37:31;94729.28;;;13.39;32.22
13604;BME280;24578;48.264;11.436;2023-03-07T09:40:54;94717.75;;;13.00;32.06
13604;BME280;24578;48.264;11.436;2023-03-07T09:52:27;94703.59;;;11.85;33.89
13604;BME280;24578;48.264;11.436;2023-03-07T09:55:53;94707.81;;;10.99;35.26
13604;BME280;24578;48.264;11.436;2023-03-07T10:06:48;94699.59;;;11.30;35.45
13604;BME280;24578;48.264;11.436;2023-03-07T10:26:07;94672.44;;;12.12;33.54
13604;BME280;24578;48.264;11.436;2023-03-07T10:32:59;94671.47;;;11.35;34.45
13604;BME280;24578;48.264;11.436;2023-03-07T10:36:34;94662.78;;;11.18;34.33
13604;BME280;24578;48.264;11.436;2023-03-07T10:39:58;94661.16;;;11.95;33.93
13604;BME280;24578;48.264;11.436;2023-03-07T10:46:53;94631.75;;;14.23;30.83
13604;BME280;24578;48.264;11.436;2023-03-07T10:53:49;94630.97;;;15.22;29.51
13604;BME280;24578;48.264;11.436;2023-03-07T10:57:16;94607.03;;;14.65;29.42
13604;BME280;24578;48.264;11.436;2023-03-07T11:00:39;94609.22;;;15.00;28.62
13604;BME280;24578;48.264;11.436;2023-03-07T11:04:06;94607.00;;;14.04;30.12
13604;BME280;24578;48.264;11.436;2023-03-07T11:07:34;94596.47;;;13.65;30.85
13604;BME280;24578;48.264;11.436;2023-03-07T11:10:58;94581.84;;;13.96;31.07
13604;BME280;24578;48.264;11.436;2023-03-07T11:14:22;94586.09;;;13.89;30.78
13604;BME280;24578;48.264;11.436;2023-03-07T11:17:46;94586.94;;;14.12;30.00
13604;BME280;24578;48.264;11.436;2023-03-07T11:21:46;94589.56;;;13.49;31.98
13604;BME280;24578;48.264;11.436;2023-03-07T11:25:20;94587.38;;;13.93;30.75
13604;BME280;24578;48.264;11.436;2023-03-07T11:28:43;94573.78;;;13.03;31.83
13604;BME280;24578;48.264;11.436;2023-03-07T11:32:12;94568.56;;;13.11;31.40
13604;BME280;24578;48.264;11.436;2023-03-07T11:35:56;94571.75;;;12.15;32.66
13604;BME280;24578;48.264;11.436;2023-03-07T11:50:29;94546.47;;;13.86;30.94
13604;BME280;24578;48.264;11.436;2023-03-07T12:01:39;94531.56;;;12.11;34.18
13604;BME280;24578;48.264;11.436;2023-03-07T12:05:20;94522.44;;;11.74;34.49
13604;BME280;24578;48.264;11.436;2023-03-07T12:13:10;94512.69;;;11.68;34.69
13604;BME280;24578;48.264;11.436;2023-03-07T12:23:40;94494.03;;;12.72;33.47
13604;BME280;24578;48.264;11.436;2023-03-07T12:27:12;94498.00;;;12.43;32.67
13604;BME280;24578;48.264;11.436;2023-03-07T12:30:56;94501.06;;;11.97;33.97
13604;BME280;24578;48.264;11.436;2023-03-07T12:35:13;94502.94;;;11.37;34.91
13604;BME280;24578;48.264;11.436;2023-03-07T12:38:24;94499.19;;;11.31;35.88
13604;BME280;24578;48.264;11.436;2023-03-07T12:42:02;94485.81;;;11.77;35.43
13604;BME280;24578;48.264;11.436;2023-03-07T12:45:52;94485.34;;;11.73;35.88
13604;BME280;24578;48.264;11.436;2023-03-07T12:49:33;94476.97;;;11.20;36.41
13604;BME280;24578;48.264;11.436;2023-03-07T12:53:02;94489.97;;;11.29;37.62
13604;BME280;24578;48.264;11.436;2023-03-07T12:56:40;94484.09;;;11.18;36.80
13604;BME280;24578;48.264;11.436;2023-03-07T13:00:07;94482.81;;;11.22;36.37
13604;BME280;24578;48.264;11.436;2023-03-07T13:03:47;94467.94;;;11.24;36.38
13604;BME280;24578;48.264;11.436;2023-03-07T13:07:32;94473.66;;;11.61;35.89
13604;BME280;24578;48.264;11.436;2023-03-07T13:10:54;94482.75;;;11.65;34.50
13604;BME280;24578;48.264;11.436;2023-03-07T13:14:37;94464.28;;;11.52;35.68
13604;BME280;24578;48.264;11.436;2023-03-07T13:18:00;94469.22;;;11.20;36.43
13604;BME280;24578;48.264;11.436;2023-03-07T13:21:32;94467.63;;;11.27;35.51
13604;BME280;24578;48.264;11.436;2023-03-07T13:24:55;94464.03;;;10.69;36.31
13604;BME280;24578;48.264;11.436;2023-03-07T13:28:43;94453.94;;;10.92;36.05
13604;BME280;24578;48.264;11.436;2023-03-07T13:32:53;94468.78;;;10.29;36.59
13604;BME280;24578;48.264;11.436;2023-03-07T13:36:36;94453.38;;;10.72;35.89
13604;BME280;24578;48.264;11.436;2023-03-07T13:39:59;94444.28;;;11.11;36.58
13604;BME280;24578;48.264;11.436;2023-03-07T13:46:48;94437.69;;;10.21;37.50
13604;BME280;24578;48.264;11.436;2023-03-07T13:51:17;94423.97;;;10.47;36.85
13604;BME280;24578;48.264;11.436;2023-03-07T13:54:12;94434.22;;;10.30;37.55
13604;BME280;24578;48.264;11.436;2023-03-07T13:57:38;94424.84;;;11.07;36.09
13604;BME280;24578;48.264;11.436;2023-03-07T14:01:12;94424.38;;;11.20;36.12
13604;BME280;24578;48.264;11.436;2023-03-07T14:04:48;94418.72;;;11.24;35.05
13604;BME280;24578;48.264;11.436;2023-03-07T14:08:14;94418.03;;;10.55;36.65
13604;BME280;24578;48.264;11.436;2023-03-07T14:11:49;94419.50;;;10.04;36.70
13604;BME280;24578;48.264;11.436;2023-03-07T14:15:24;94407.97;;;10.17;37.53
13604;BME280;24578;48.264;11.436;2023-03-07T14:19:04;94413.72;;;10.11;37.24
13604;BME280;24578;48.264;11.436;2023-03-07T14:23:07;94417.38;;;10.00;37.37
13604;BME280;24578;48.264;11.436;2023-03-07T14:26:34;94410.03;;;9.87;37.30
13604;BME280;24578;48.264;11.436;2023-03-07T14:29:57;94401.91;;;9.82;37.28
13604;BME280;24578;48.264;11.436;2023-03-07T14:33:19;94420.03;;;9.45;38.01
13604;BME280;24578;48.264;11.436;2023-03-07T14:36:41;94421.59;;;9.38;38.97
13604;BME280;24578;48.264;11.436;2023-03-07T14:47:34;94411.59;;;8.89;39.87
13604;BME280;24578;48.264;11.436;2023-03-07T14:51:30;94426.91;;;8.35;41.82
13604;BME280;24578;48.264;11.436;2023-03-07T14:54:51;94419.00;;;8.46;41.23
13604;BME280;24578;48.264;11.436;2023-03-07T14:58:19;94419.88;;;8.93;39.95
13604;BME280;24578;48.264;11.436;2023-03-07T15:01:41;94420.03;;;9.45;39.87
13604;BME280;24578;48.264;11.436;2023-03-07T15:05:13;94412.50;;;9.52;39.19
13604;BME280;24578;48.264;11.436;2023-03-07T15:08:35;94417.38;;;9.01;41.38
13604;BME280;24578;48.264;11.436;2023-03-07T15:12:10;94420.06;;;8.53;40.98
13604;BME280;24578;48.264;11.436;2023-03-07T15:15:52;94421.91;;;8.33;41.21
13604;BME280;24578;48.264;11.436;2023-03-07T15:22:42;94426.88;;;7.87;43.46
13604;BME280;24578;48.264;11.436;2023-03-07T15:26:06;94435.44;;;7.88;43.09
13604;BME280;24578;48.264;11.436;2023-03-07T15:29:31;94431.94;;;7.50;44.05
13604;BME280;24578;48.264;11.436;2023-03-07T15:36:40;94434.94;;;7.55;45.84
13604;BME280;24578;48.264;11.436;2023-03-07T15:43:34;94418.25;;;7.10;46.42
13604;BME280;24578;48.264;11.436;2023-03-07T15:47:02;94421.38;;;7.04;47.52
13604;BME280;24578;48.264;11.436;2023-03-07T15:50:26;94429.19;;;6.82;47.72
13604;BME280;24578;48.264;11.436;2023-03-07T15:54:16;94436.19;;;6.70;47.60
13604;BME280;24578;48.264;11.436;2023-03-07T15:57:57;94449.28;;;6.58;47.33
13604;BME280;24578;48.264;11.436;2023-03-07T16:01:22;94450.81;;;6.39;49.02
13604;BME280;24578;48.264;11.436;2023-03-07T16:04:45;94454.44;;;6.27;49.54
13604;BME280;24578;48.264;11.436;2023-03-07T16:08:15;94454.50;;;5.94;51.19
13604;BME280;24578;48.264;11.436;2023-03-07T16:11:40;94457.38;;;5.79;51.87
13604;BME280;24578;48.264;11.436;2023-03-07T16:15:03;94465.34;;;5.76;51.04
13604;BME280;24578;48.264;11.436;2023-03-07T16:18:27;94471.91;;;5.69;51.27
13604;BME280;24578;48.264;11.436;2023-03-07T16:21:50;94473.66;;;5.69;52.87
13604;BME280;24578;48.264;11.436;2023-03-07T16:25:12;94475.84;;;5.52;53.10
13604;BME280;24578;48.264;11.436;2023-03-07T16:28:34;94479.78;;;5.56;53.59
13604;BME280;24578;48.264;11.436;2023-03-07T16:31:56;94482.78;;;5.29;53.94
13604;BME280;24578;48.264;11.436;2023-03-07T16:35:24;94478.63;;;5.16;54.86
13604;BME280;24578;48.264;11.436;2023-03-07T16:38:46;94478.31;;;4.98;56.09
13604;BME280;24578;48.264;11.436;2023-03-07T16:42:19;94476.59;;;4.87;57.27
13604;BME280;24578;48.264;11.436;2023-03-07T16:45:41;94477.63;;;4.85;56.89
13604;BME280;24578;48.264;11.436;2023-03-07T16:49:03;94475.66;;;4.77;57.67
13604;BME280;24578;48.264;11.436;2023-03-07T16:52:25;94467.28;;;4.75;58.29
13604;BME280;24578;48.264;11.436;2023-03-07T16:55:47;94467.78;;;4.57;59.79
13604;BME280;24578;48.264;11.436;2023-03-07T16:59:17;94472.78;;;4.48;60.97
13604;BME280;24578;48.264;11.436;2023-03-07T17:02:40;94481.03;;;4.29;62.34
13604;BME280;24578;48.264;11.436;2023-03-07T17:06:02;94484.78;;;4.24;62.50
13604;BME280;24578;48.264;11.436;2023-03-07T17:09:23;94486.94;;;4.06;64.11
13604;BME280;24578;48.264;11.436;2023-03-07T17:12:46;94493.09;;;3.92;65.10
13604;BME280;24578;48.264;11.436;2023-03-07T17:16:14;94509.63;;;3.88;65.36
13604;BME280;24578;48.264;11.436;2023-03-07T17:19:37;94511.38;;;3.88;64.85
13604;BME280;24578;48.264;11.436;2023-03-07T17:22:59;94526.09;;;3.73;66.56
13604;BME280;24578;48.264;11.436;2023-03-07T17:29:52;94532.81;;;3.38;70.70
13604;BME280;24578;48.264;11.436;2023-03-07T17:33:15;94539.94;;;3.22;72.79
13604;BME280;24578;48.264;11.436;2023-03-07T17:36:36;94536.34;;;3.24;72.25
13604;BME280;24578;48.264;11.436;2023-03-07T17:39:58;94559.88;;;3.16;72.26
13604;BME280;24578;48.264;11.436;2023-03-07T17:43:21;94558.06;;;3.05;72.88
13604;BME280;24578;48.264;11.436;2023-03-07T17:46:43;94564.63;;;2.97;73.27
13604;BME280;24578;48.264;11.436;2023-03-07T17:50:07;94576.31;;;2.88;73.25
13604;BME280;24578;48.264;11.436;2023-03-07T17:53:29;94582.47;;;2.72;75.12
13604;BME280;24578;48.264;11.436;2023-03-07T17:56:51;94580.22;;;2.68;75.77
13604;BME280;24578;48.264;11.436;2023-03-07T18:00:13;94590.13;;;2.59;75.79
13604;BME280;24578;48.264;11.436;2023-03-07T18:03:35;94595.94;;;2.49;77.00
13604;BME280;24578;48.264;11.436;2023-03-07T18:06:57;94600.03;;;2.38;77.68
13604;BME280;24578;48.264;11.436;2023-03-07T18:10:20;94593.88;;;2.28;78.66
13604;BME280;24578;48.264;11.436;2023-03-07T18:13:42;94592.06;;;2.17;80.03
13604;BME280;24578;48.264;11.436;2023-03-07T18:17:04;94605.31;;;2.09;81.09
13604;BME280;24578;48.264;11.436;2023-03-07T18:20:26;94602.44;;;2.01;82.37
13604;BME280;24578;48.264;11.436;2023-03-07T18:23:51;94596.38;;;1.89;83.70
13604;BME280;24578;48.264;11.436;2023-03-07T18:27:13;94592.19;;;1.88;84.27
13604;BME280;24578;48.264;11.436;2023-03-07T18:30:35;94595.63;;;1.74;85.84
13604;BME280;24578;48.264;11.436;2023-03-07T18:33:57;94605.22;;;1.71;86.33
13604;BME280;24578;48.264;11.436;2023-03-07T18:37:18;94612.41;;;1.64;87.48
13604;BME280;24578;48.264;11.436;2023-03-07T18:40:40;94610.44;;;1.55;88.77
13604;BME280;24578;48.264;11.436;2023-03-07T18:44:02;94610.91;;;1.47;88.55
13604;BME280;24578;48.264;11.436;2023-03-07T18:47:24;94617.56;;;1.49;88.71
13604;BME280;24578;48.264;11.436;2023-03-07T18:51:00;94618.69;;;1.45;87.66
13604;BME280;24578;48.264;11.436;2023-03-07T18:54:22;94622.94;;;1.45;86.82
13604;BME280;24578;48.264;11.436;2023-03-07T18:57:44;94634.34;;;1.39;86.10
13604;BME280;24578;48.264;11.436;2023-03-07T19:01:18;94628.44;;;1.39;87.29
13604;BME280;24578;48.264;11.436;2023-03-07T19:04:41;94632.28;;;1.31;87.39
13604;BME280;24578;48.264;11.436;2023-03-07T19:08:02;94634.38;;;1.25;87.18
13604;BME280;24578;48.264;11.436;2023-03-07T19:11:25;94640.13;;;1.14;87.27
13604;BME280;24578;48.264;11.436;2023-03-07T19:14:46;94634.56;;;1.07;87.93
13604;BME280;24578;48.264;11.436;2023-03-07T19:18:08;94633.41;;;0.98;88.94
13604;BME280;24578;48.264;11.436;2023-03-07T19:21:30;94642.41;;;0.89;89.95
13604;BME280;24578;48.264;11.436;2023-03-07T19:24:52;94641.56;;;1.18;100.00
13604;BME280;24578;48.264;11.436;2023-03-07T19:28:14;94642.31;;;1.20;100.00
13604;BME280;24578;48.264;11.436;2023-03-07T19:31:35;94646.50;;;1.21;100.00
13604;BME280;24578;48.264;11.436;2023-03-07T19:34:57;94656.78;;;1.19;100.00